createdAt,value
2018-09-06T00:00:14.116Z,63.72
2018-09-06T00:02:43.670Z,64.06
2018-09-06T00:05:13.312Z,64.30
2018-09-06T00:07:42.963Z,63.24
2018-09-06T00:10:12.545Z,64.11
2018-09-06T00:12:42.072Z,63.08
2018-09-06T00:15:11.640Z,63.72
2018-09-06T00:17:41.144Z,63.18
2018-09-06T00:20:10.737Z,63.73
2018-09-06T00:22:40.296Z,63.63
2018-09-06T00:25:09.964Z,62.89
2018-09-06T00:27:39.524Z,63.58
2018-09-06T00:30:09.090Z,62.79
2018-09-06T00:32:38.694Z,62.61
2018-09-06T00:35:08.236Z,63.34
2018-09-06T00:37:37.988Z,63.15
2018-09-06T00:40:08.544Z,62.00
2018-09-06T00:42:38.198Z,62.81
2018-09-06T00:45:07.836Z,62.76
2018-09-06T00:47:37.618Z,63.49
2018-09-06T00:50:12.463Z,62.62
2018-09-06T00:52:42.047Z,62.97
2018-09-06T00:55:11.583Z,62.89
2018-09-06T00:57:41.167Z,62.27
2018-09-06T01:00:10.743Z,62.92
2018-09-06T01:02:40.323Z,62.60
2018-09-06T01:05:09.923Z,62.77
2018-09-06T01:07:39.419Z,62.84
2018-09-06T01:10:09.275Z,61.79
2018-09-06T01:12:38.822Z,62.28
2018-09-06T01:15:08.451Z,61.84
2018-09-06T01:17:37.984Z,62.00
2018-09-06T01:20:07.662Z,62.39
2018-09-06T01:22:37.242Z,61.86
2018-09-06T01:25:06.874Z,61.96
2018-09-06T01:27:36.463Z,61.73
2018-09-06T01:30:06.268Z,61.96
2018-09-06T01:32:35.860Z,61.92
2018-09-06T01:35:05.423Z,60.96
2018-09-06T01:37:34.958Z,61.52
2018-09-06T01:40:04.552Z,60.67
2018-09-06T01:42:34.081Z,61.30
2018-09-06T01:45:03.595Z,60.69
2018-09-06T01:47:33.336Z,61.67
2018-09-06T01:50:02.835Z,60.83
2018-09-06T01:52:32.427Z,60.48
2018-09-06T01:55:01.968Z,61.33
2018-09-06T01:57:31.548Z,61.44
2018-09-06T02:00:01.063Z,61.18
2018-09-06T02:02:30.765Z,61.38
2018-09-06T02:05:00.261Z,61.14
2018-09-06T02:07:29.908Z,61.52
2018-09-06T02:09:59.479Z,60.72
2018-09-06T02:12:29.076Z,61.06
2018-09-06T02:14:58.588Z,61.06
2018-09-06T02:17:28.232Z,61.21
2018-09-06T02:19:57.776Z,60.61
2018-09-06T02:22:27.327Z,60.53
2018-09-06T02:24:56.907Z,60.74
2018-09-06T02:27:26.398Z,59.45
2018-09-06T02:29:55.946Z,60.59
2018-09-06T02:32:25.501Z,60.39
2018-09-06T02:34:55.112Z,59.74
2018-09-06T02:37:24.651Z,60.05
2018-09-06T02:39:54.254Z,59.64
2018-09-06T02:42:23.799Z,59.34
2018-09-06T02:44:53.353Z,59.31
2018-09-06T02:47:22.916Z,59.69
2018-09-06T02:49:57.427Z,59.26
2018-09-06T02:52:27.076Z,59.49
2018-09-06T02:54:56.564Z,59.11
2018-09-06T02:57:26.102Z,59.57
2018-09-06T02:59:55.755Z,59.35
2018-09-06T03:02:25.438Z,59.32
2018-09-06T03:04:54.987Z,59.02
2018-09-06T03:07:24.616Z,58.88
2018-09-06T03:09:54.229Z,58.97
2018-09-06T03:12:23.860Z,59.27
2018-09-06T03:14:53.362Z,59.68
2018-09-06T03:17:22.921Z,59.35
2018-09-06T03:19:52.516Z,59.41
2018-09-06T03:22:22.027Z,59.67
2018-09-06T03:24:51.555Z,59.50
2018-09-06T03:27:21.184Z,59.42
2018-09-06T03:29:50.720Z,59.51
2018-09-06T03:32:20.351Z,59.59
2018-09-06T03:34:49.949Z,60.31
2018-09-06T03:37:19.583Z,59.90
2018-09-06T03:39:49.137Z,59.96
2018-09-06T03:42:18.823Z,60.70
2018-09-06T03:44:48.444Z,60.40
2018-09-06T03:47:18.075Z,59.58
2018-09-06T03:49:47.569Z,60.68
2018-09-06T03:52:17.103Z,59.69
2018-09-06T03:54:46.647Z,60.62
2018-09-06T03:57:16.255Z,60.20
2018-09-06T03:59:45.812Z,60.34
2018-09-06T04:02:15.428Z,59.83
2018-09-06T04:04:45.048Z,60.21
2018-09-06T04:07:14.590Z,60.15
2018-09-06T04:09:44.183Z,59.49
2018-09-06T04:12:13.715Z,59.16
2018-09-06T04:14:43.368Z,59.75
2018-09-06T04:17:12.923Z,59.81
2018-09-06T04:19:42.562Z,59.20
2018-09-06T04:22:12.233Z,58.58
2018-09-06T04:24:41.839Z,58.74
2018-09-06T04:27:11.398Z,59.26
2018-09-06T04:29:40.963Z,58.72
2018-09-06T04:32:10.624Z,58.24
2018-09-06T04:34:40.122Z,58.03
2018-09-06T04:37:09.656Z,57.15
2018-09-06T04:39:39.160Z,57.32
2018-09-06T04:42:08.735Z,56.71
2018-09-06T04:44:38.223Z,56.37
2018-09-06T04:47:07.754Z,56.47
2018-09-06T04:49:37.288Z,56.36
2018-09-06T04:52:06.864Z,55.87
2018-09-06T04:54:36.395Z,55.57
2018-09-06T04:57:05.987Z,54.94
2018-09-06T04:59:35.563Z,54.63
2018-09-06T05:02:05.136Z,53.92
2018-09-06T05:04:34.756Z,53.77
2018-09-06T05:07:04.264Z,54.21
2018-09-06T05:09:33.908Z,53.54
2018-09-06T05:12:03.411Z,53.50
2018-09-06T05:14:33.000Z,52.13
2018-09-06T05:17:02.573Z,51.66
2018-09-06T05:19:32.067Z,51.62
2018-09-06T05:22:01.650Z,51.74
2018-09-06T05:24:31.366Z,51.02
2018-09-06T05:27:00.936Z,50.63
2018-09-06T05:29:30.453Z,49.90
2018-09-06T05:32:00.116Z,50.39
2018-09-06T05:34:29.634Z,49.54
2018-09-06T05:36:59.183Z,49.71
2018-09-06T05:39:28.676Z,49.25
2018-09-06T05:41:58.268Z,48.57
2018-09-06T05:44:27.853Z,49.63
2018-09-06T05:46:57.568Z,48.69
2018-09-06T05:49:27.171Z,48.81
2018-09-06T05:51:56.791Z,49.01
2018-09-06T05:54:26.322Z,47.60
2018-09-06T05:56:55.872Z,47.01
2018-09-06T05:59:25.579Z,47.99
2018-09-06T06:01:55.084Z,47.46
2018-09-06T06:04:24.680Z,48.05
2018-09-06T06:06:54.195Z,47.13
2018-09-06T06:09:23.728Z,47.30
2018-09-06T06:11:53.345Z,46.68
2018-09-06T06:14:22.931Z,47.05
2018-09-06T06:16:52.480Z,46.06
2018-09-06T06:19:22.018Z,46.86
2018-09-06T06:21:51.515Z,46.07
2018-09-06T06:24:21.107Z,46.28
2018-09-06T06:26:50.613Z,45.25
2018-09-06T06:29:20.157Z,44.83
2018-09-06T06:31:49.721Z,46.00
2018-09-06T06:34:19.323Z,44.56
2018-09-06T06:36:48.815Z,44.73
2018-09-06T06:39:18.520Z,44.66
2018-09-06T06:41:48.059Z,44.96
2018-09-06T06:44:17.644Z,44.05
2018-09-06T06:46:47.164Z,43.63
2018-09-06T06:49:17.041Z,43.84
2018-09-06T06:51:46.584Z,44.04
2018-09-06T06:54:16.262Z,43.04
2018-09-06T06:56:45.888Z,43.21
2018-09-06T06:59:15.448Z,44.05
2018-09-06T07:01:45.023Z,43.63
2018-09-06T07:04:14.737Z,43.03
2018-09-06T07:06:44.288Z,43.44
2018-09-06T07:09:13.808Z,42.86
2018-09-06T07:11:43.384Z,43.14
2018-09-06T07:14:12.961Z,43.00
2018-09-06T07:16:42.532Z,43.58
2018-09-06T07:19:12.131Z,43.36
2018-09-06T07:21:41.699Z,42.89
2018-09-06T07:24:11.232Z,43.64
2018-09-06T07:26:40.824Z,43.61
2018-09-06T07:29:10.363Z,43.15
2018-09-06T07:31:39.912Z,43.03
2018-09-06T07:34:09.476Z,42.14
2018-09-06T07:36:39.057Z,42.51
2018-09-06T07:39:09.828Z,42.61
2018-09-06T07:41:39.380Z,43.16
2018-09-06T07:44:08.896Z,42.39
2018-09-06T07:46:38.585Z,42.50
2018-09-06T07:49:08.139Z,42.73
2018-09-06T07:51:37.731Z,43.17
2018-09-06T07:54:07.370Z,43.10
2018-09-06T07:56:36.899Z,41.75
2018-09-06T07:59:06.637Z,42.24
2018-09-06T08:01:36.185Z,42.38
2018-09-06T08:04:05.811Z,42.49
2018-09-06T08:06:35.439Z,41.81
2018-09-06T08:09:07.092Z,43.59
2018-09-06T08:11:36.743Z,42.12
2018-09-06T08:14:06.351Z,42.47
2018-09-06T08:16:36.351Z,41.75
2018-09-06T08:19:06.133Z,41.45
2018-09-06T08:21:35.720Z,40.88
2018-09-06T08:24:05.341Z,41.28
2018-09-06T08:26:34.895Z,40.82
2018-09-06T08:29:04.431Z,41.29
2018-09-06T08:31:34.066Z,40.15
2018-09-06T08:34:03.671Z,39.85
2018-09-06T08:36:33.237Z,38.16
2018-09-06T08:39:02.908Z,38.42
2018-09-06T08:41:32.403Z,37.99
2018-09-06T08:44:01.946Z,37.65
2018-09-06T08:46:31.507Z,37.25
2018-09-06T08:49:01.199Z,37.58
2018-09-06T08:51:30.876Z,37.71
2018-09-06T08:54:00.398Z,37.48
2018-09-06T08:56:29.980Z,37.53
2018-09-06T08:58:59.560Z,37.49
2018-09-06T09:01:34.203Z,36.30
2018-09-06T09:04:03.717Z,35.98
2018-09-06T09:06:33.255Z,35.94
2018-09-06T09:09:02.917Z,36.26
2018-09-06T09:11:32.576Z,36.54
2018-09-06T09:14:02.212Z,35.79
2018-09-06T09:16:31.797Z,36.50
2018-09-06T09:19:01.452Z,35.44
2018-09-06T09:21:31.088Z,35.89
2018-09-06T09:24:00.772Z,36.04
2018-09-06T09:26:30.391Z,36.65
2018-09-06T09:28:59.952Z,36.37
2018-09-06T09:31:29.569Z,36.41
2018-09-06T09:33:59.334Z,35.84
2018-09-06T09:36:29.016Z,36.45
2018-09-06T09:38:58.607Z,35.89
2018-09-06T09:41:28.159Z,35.80
2018-09-06T09:43:57.717Z,36.42
2018-09-06T09:51:24.664Z,35.36
2018-09-06T09:53:54.347Z,35.45
2018-09-06T09:56:23.859Z,33.96
2018-09-06T09:58:53.395Z,34.28
2018-09-06T10:01:23.035Z,34.85
2018-09-06T10:03:57.656Z,34.58
2018-09-06T10:06:32.351Z,34.33
2018-09-06T10:09:06.856Z,35.56
2018-09-06T10:11:36.480Z,35.19
2018-09-06T10:14:06.023Z,35.63
2018-09-06T10:16:35.547Z,36.62
2018-09-06T10:19:05.139Z,37.19
2018-09-06T10:21:34.675Z,37.60
2018-09-06T10:24:04.417Z,37.53
2018-09-06T10:26:34.093Z,37.16
2018-09-06T10:29:03.660Z,37.09
2018-09-06T10:31:33.764Z,37.22
2018-09-06T10:34:03.327Z,37.46
2018-09-06T10:36:33.256Z,37.46
2018-09-06T10:39:02.948Z,37.06
2018-09-06T10:41:32.563Z,36.92
2018-09-06T10:44:02.174Z,37.00
2018-09-06T10:46:31.816Z,37.37
2018-09-06T10:49:01.444Z,37.77
2018-09-06T10:51:31.043Z,35.88
2018-09-06T10:54:00.686Z,36.14
2018-09-06T10:56:30.463Z,35.43
2018-09-06T10:59:00.051Z,35.09
2018-09-06T11:01:29.757Z,34.37
2018-09-06T11:03:59.453Z,35.12
2018-09-06T11:06:29.162Z,35.57
2018-09-06T11:08:58.835Z,35.64
2018-09-06T11:11:28.415Z,35.24
2018-09-06T11:13:57.915Z,36.68
2018-09-06T11:16:27.650Z,35.67
2018-09-06T11:18:57.204Z,35.13
2018-09-06T11:21:26.820Z,35.64
2018-09-06T11:23:56.278Z,35.01
2018-09-06T11:26:25.882Z,35.53
2018-09-06T11:28:55.469Z,35.51
2018-09-06T11:31:25.070Z,34.76
2018-09-06T11:33:54.583Z,34.09
2018-09-06T11:36:24.147Z,34.23
2018-09-06T11:38:53.761Z,33.28
2018-09-06T11:41:23.325Z,33.01
2018-09-06T11:43:52.936Z,32.68
2018-09-06T11:46:22.601Z,33.16
2018-09-06T11:48:52.293Z,32.58
2018-09-06T11:51:21.897Z,33.47
2018-09-06T11:53:51.471Z,33.02
2018-09-06T11:56:21.052Z,32.98
2018-09-06T11:58:50.619Z,33.06
2018-09-06T12:01:20.396Z,32.40
2018-09-06T12:03:50.267Z,32.62
2018-09-06T12:06:19.949Z,31.76
2018-09-06T12:08:49.553Z,31.12
2018-09-06T12:11:19.107Z,31.38
2018-09-06T12:13:48.713Z,31.13
2018-09-06T12:16:18.283Z,31.70
2018-09-06T12:18:47.815Z,31.86
2018-09-06T12:21:17.419Z,32.86
2018-09-06T12:23:46.933Z,32.88
2018-09-06T12:26:16.472Z,31.90
2018-09-06T12:28:46.001Z,32.07
2018-09-06T12:31:15.564Z,31.17
2018-09-06T12:33:45.159Z,31.33
2018-09-06T12:36:14.856Z,31.50
2018-09-06T12:38:44.451Z,31.14
2018-09-06T12:41:14.111Z,31.70
2018-09-06T12:43:44.120Z,31.36
2018-09-06T12:46:13.760Z,31.57
2018-09-06T12:48:43.529Z,32.10
2018-09-06T12:51:13.312Z,31.45
2018-09-06T12:53:42.871Z,30.40
2018-09-06T12:56:12.524Z,31.01
2018-09-06T12:58:42.173Z,31.10
2018-09-06T13:01:12.890Z,30.58
2018-09-06T13:03:42.828Z,30.56
2018-09-06T13:06:12.413Z,31.79
2018-09-06T13:08:42.025Z,31.47
2018-09-06T13:11:11.640Z,30.96
2018-09-06T13:13:41.386Z,31.87
2018-09-06T13:16:10.898Z,31.67
2018-09-06T13:18:40.514Z,31.36
2018-09-06T13:21:10.077Z,32.25
2018-09-06T13:23:39.636Z,32.23
2018-09-06T13:26:09.209Z,32.37
2018-09-06T13:28:38.902Z,32.65
2018-09-06T13:31:08.535Z,32.52
2018-09-06T13:33:38.083Z,33.02
2018-09-06T13:36:07.596Z,31.43
2018-09-06T13:38:37.107Z,32.84
2018-09-06T13:41:07.592Z,32.94
2018-09-06T13:43:37.158Z,32.65
2018-09-06T13:46:06.798Z,32.74
2018-09-06T13:48:36.381Z,32.71
2018-09-06T13:51:06.207Z,32.36
2018-09-06T13:53:35.711Z,31.79
2018-09-06T13:56:05.335Z,31.36
2018-09-06T13:58:34.844Z,31.77
2018-09-06T14:01:04.423Z,31.27
2018-09-06T14:03:33.992Z,31.96
2018-09-06T14:06:03.638Z,31.43
2018-09-06T14:08:33.183Z,32.09
2018-09-06T14:11:02.719Z,32.49
2018-09-06T14:13:32.268Z,31.92
2018-09-06T14:16:01.867Z,32.67
2018-09-06T14:18:31.499Z,31.67
2018-09-06T14:21:01.159Z,32.19
2018-09-06T14:23:30.688Z,32.78
2018-09-06T14:26:00.193Z,32.80
2018-09-06T14:28:29.752Z,32.33
2018-09-06T14:30:59.308Z,32.05
2018-09-06T14:33:28.918Z,32.19
2018-09-06T14:35:58.491Z,32.00
2018-09-06T14:38:28.047Z,32.42
2018-09-06T14:40:57.552Z,31.55
2018-09-06T14:43:27.137Z,31.82
2018-09-06T14:45:56.744Z,31.61
2018-09-06T14:48:26.284Z,31.50
2018-09-06T14:50:55.877Z,31.51
2018-09-06T14:53:25.354Z,30.98
2018-09-06T14:55:54.888Z,30.68
2018-09-06T14:58:24.399Z,30.29
2018-09-06T15:00:53.944Z,30.90
2018-09-06T15:03:23.435Z,30.63
2018-09-06T15:05:52.966Z,30.82
2018-09-06T15:08:22.500Z,30.61
2018-09-06T15:10:52.048Z,31.51
2018-09-06T15:13:21.641Z,31.39
2018-09-06T15:15:51.204Z,31.39
2018-09-06T15:18:20.745Z,31.51
2018-09-06T15:20:50.296Z,32.21
2018-09-06T15:23:19.869Z,31.93
2018-09-06T15:25:49.416Z,32.43
2018-09-06T15:28:18.954Z,32.30
2018-09-06T15:30:48.576Z,31.76
2018-09-06T15:33:18.091Z,32.19
2018-09-06T15:35:47.617Z,31.97
2018-09-06T15:38:17.120Z,31.94
2018-09-06T15:40:46.695Z,32.72
2018-09-06T15:43:16.231Z,32.11
2018-09-06T15:45:45.732Z,30.94
2018-09-06T15:48:15.315Z,30.32
2018-09-06T15:50:44.824Z,31.36
2018-09-06T15:53:14.360Z,30.74
2018-09-06T15:55:43.979Z,30.71
2018-09-06T15:58:13.484Z,30.19
2018-09-06T16:00:43.079Z,32.42
2018-09-06T16:03:12.640Z,32.62
2018-09-06T16:05:42.239Z,33.01
2018-09-06T16:08:11.735Z,33.83
2018-09-06T16:10:41.280Z,34.09
2018-09-06T16:13:10.778Z,33.71
2018-09-06T16:15:40.312Z,34.24
2018-09-06T16:18:09.931Z,35.17
2018-09-06T16:20:39.502Z,34.85
2018-09-06T16:23:09.144Z,35.06
2018-09-06T16:25:38.666Z,35.61
2018-09-06T16:28:08.261Z,35.36
2018-09-06T16:30:37.784Z,35.50
2018-09-06T16:33:07.355Z,35.68
2018-09-06T16:35:36.897Z,36.03
2018-09-06T16:38:06.503Z,36.06
2018-09-06T16:40:36.064Z,36.55
2018-09-06T16:43:05.828Z,36.62
2018-09-06T16:45:35.412Z,37.19
2018-09-06T16:48:04.988Z,38.89
2018-09-06T16:50:34.487Z,40.47
2018-09-06T16:53:04.084Z,39.71
2018-09-06T16:55:33.739Z,39.57
2018-09-06T16:58:03.361Z,41.09
2018-09-06T17:00:32.924Z,41.28
2018-09-06T17:03:02.477Z,41.43
2018-09-06T17:05:32.072Z,40.58
2018-09-06T17:08:01.599Z,41.11
2018-09-06T17:10:31.112Z,41.46
2018-09-06T17:13:00.720Z,41.85
2018-09-06T17:15:30.327Z,41.75
2018-09-06T17:17:59.982Z,42.01
2018-09-06T17:20:29.651Z,42.69
2018-09-06T17:22:59.231Z,44.14
2018-09-06T17:25:28.771Z,43.59
2018-09-06T17:27:58.308Z,43.34
2018-09-06T17:30:27.798Z,43.85
2018-09-06T17:32:57.339Z,43.68
2018-09-06T17:35:26.893Z,44.27
2018-09-06T17:37:56.484Z,44.73
2018-09-06T17:40:26.072Z,45.95
2018-09-06T17:42:55.560Z,45.11
2018-09-06T17:45:25.196Z,44.24
2018-09-06T17:47:54.810Z,45.59
2018-09-06T17:50:24.399Z,46.78
2018-09-06T17:52:54.091Z,46.85
2018-09-06T17:55:23.802Z,45.68
2018-09-06T17:57:53.328Z,45.69
2018-09-06T18:00:23.031Z,46.52
2018-09-06T18:02:52.599Z,46.14
2018-09-06T18:05:22.184Z,46.26
2018-09-06T18:07:51.855Z,45.92
2018-09-06T18:10:21.420Z,45.75
2018-09-06T18:12:51.044Z,46.90
2018-09-06T18:15:20.702Z,47.86
2018-09-06T18:17:50.512Z,47.25
2018-09-06T18:20:19.971Z,48.19
2018-09-06T18:22:49.531Z,46.78
2018-09-06T18:25:19.307Z,46.32
2018-09-06T18:27:48.955Z,47.22
2018-09-06T18:30:18.672Z,46.55
2018-09-06T18:32:48.263Z,47.16
2018-09-06T18:35:17.831Z,47.80
2018-09-06T18:37:47.328Z,47.52
2018-09-06T18:40:16.856Z,47.09
2018-09-06T18:42:46.551Z,46.34
2018-09-06T18:45:16.217Z,46.54
2018-09-06T18:47:45.936Z,45.74
2018-09-06T18:50:15.688Z,46.37
2018-09-06T18:52:45.332Z,47.85
2018-09-06T18:55:14.874Z,47.29
2018-09-06T18:57:44.440Z,46.59
2018-09-06T19:00:14.341Z,46.77
2018-09-06T19:02:43.948Z,47.34
2018-09-06T19:05:13.483Z,46.85
2018-09-06T19:07:43.147Z,46.55
2018-09-06T19:10:12.698Z,46.26
2018-09-06T19:12:42.248Z,45.94
2018-09-06T19:15:11.812Z,46.82
2018-09-06T19:17:41.399Z,46.62
2018-09-06T19:20:11.005Z,46.37
2018-09-06T19:22:40.625Z,46.49
2018-09-06T19:25:10.215Z,46.51
2018-09-06T19:27:39.721Z,46.59
2018-09-06T19:30:09.376Z,46.25
2018-09-06T19:32:38.992Z,46.34
2018-09-06T19:35:08.520Z,46.15
2018-09-06T19:37:38.057Z,46.34
2018-09-06T19:40:07.636Z,46.17
2018-09-06T19:42:37.166Z,46.46
2018-09-06T19:45:07.034Z,46.29
2018-09-06T19:47:36.567Z,46.21
2018-09-06T19:50:06.256Z,47.06
2018-09-06T19:52:35.880Z,46.75
2018-09-06T19:55:05.552Z,46.21
2018-09-06T19:57:35.445Z,46.25
2018-09-06T20:00:05.896Z,46.60
2018-09-06T20:02:35.536Z,46.29
2018-09-06T20:05:05.095Z,46.49
2018-09-06T20:07:34.629Z,46.74
2018-09-06T20:10:04.320Z,47.11
2018-09-06T20:12:33.912Z,46.67
2018-09-06T20:15:03.457Z,46.80
2018-09-06T20:17:32.955Z,47.41
2018-09-06T20:20:02.546Z,47.26
2018-09-06T20:22:32.039Z,47.81
2018-09-06T20:25:01.634Z,47.47
2018-09-06T20:27:31.221Z,47.61
2018-09-06T20:30:00.800Z,46.91
2018-09-06T20:32:30.364Z,47.87
2018-09-06T20:34:59.959Z,48.28
2018-09-06T20:37:29.469Z,47.63
2018-09-06T20:39:59.101Z,47.86
2018-09-06T20:42:28.595Z,47.77
2018-09-06T20:44:58.141Z,48.36
2018-09-06T20:47:27.635Z,47.84
2018-09-06T20:49:57.244Z,48.87
2018-09-06T20:52:26.820Z,49.17
2018-09-06T20:54:56.425Z,48.91
2018-09-06T20:57:25.960Z,49.88
2018-09-06T20:59:55.695Z,49.74
2018-09-06T21:02:25.772Z,50.13
2018-09-06T21:04:55.347Z,49.50
2018-09-06T21:07:24.960Z,50.03
2018-09-06T21:09:54.527Z,50.21
2018-09-06T21:12:24.055Z,49.09
2018-09-06T21:14:53.595Z,48.97
2018-09-06T21:17:23.127Z,49.80
2018-09-06T21:19:52.831Z,50.33
2018-09-06T21:22:22.383Z,50.40
2018-09-06T21:24:52.056Z,50.30
2018-09-06T21:27:21.613Z,50.29
2018-09-06T21:29:51.274Z,50.43
2018-09-06T21:32:20.791Z,49.99
2018-09-06T21:34:50.480Z,50.12
2018-09-06T21:37:20.018Z,50.50
2018-09-06T21:39:49.560Z,50.91
2018-09-06T21:42:19.102Z,50.50
2018-09-06T21:44:48.664Z,50.43
2018-09-06T21:47:18.251Z,51.09
2018-09-06T21:49:48.048Z,50.79
2018-09-06T21:52:17.659Z,51.48
2018-09-06T21:54:47.161Z,52.28
2018-09-06T21:57:16.757Z,51.63
2018-09-06T21:59:46.347Z,51.51
2018-09-06T22:02:20.995Z,52.42
2018-09-06T22:04:50.529Z,52.03
2018-09-06T22:07:20.031Z,52.96
2018-09-06T22:09:50.083Z,52.72
2018-09-06T22:12:20.351Z,52.55
2018-09-06T22:14:51.256Z,53.10
2018-09-06T22:17:20.865Z,53.73
2018-09-06T22:19:50.663Z,53.46
2018-09-06T22:22:20.253Z,54.40
2018-09-06T22:24:49.811Z,53.63
2018-09-06T22:27:19.640Z,54.47
2018-09-06T22:29:49.221Z,54.10
2018-09-06T22:32:18.803Z,53.71
2018-09-06T22:34:48.295Z,53.89
2018-09-06T22:37:17.870Z,54.81
2018-09-06T22:39:47.406Z,54.57
2018-09-06T22:42:16.943Z,54.43
2018-09-06T22:44:46.531Z,54.12
2018-09-06T22:47:16.091Z,53.16
2018-09-06T22:49:45.654Z,53.54
2018-09-06T22:52:15.211Z,53.67
2018-09-06T22:54:45.047Z,53.97
2018-09-06T22:57:14.576Z,53.45
2018-09-06T22:59:44.170Z,53.83
2018-09-06T23:02:13.664Z,54.50
2018-09-06T23:04:43.268Z,54.13
2018-09-06T23:07:12.863Z,54.94
2018-09-06T23:09:42.415Z,54.86
2018-09-06T23:12:11.971Z,53.87
2018-09-06T23:14:41.519Z,54.12
2018-09-06T23:17:11.039Z,54.43
2018-09-06T23:19:40.590Z,54.29
2018-09-06T23:22:10.136Z,53.75
2018-09-06T23:24:39.688Z,53.40
2018-09-06T23:27:09.191Z,53.07
2018-09-06T23:29:38.736Z,53.69
2018-09-06T23:32:08.265Z,53.31
2018-09-06T23:34:37.787Z,53.17
2018-09-06T23:37:07.327Z,52.54
2018-09-06T23:39:36.927Z,52.12
2018-09-06T23:42:06.504Z,53.12
2018-09-06T23:44:36.056Z,52.13
2018-09-06T23:47:05.616Z,52.52
2018-09-06T23:49:35.137Z,52.14
2018-09-06T23:52:04.702Z,52.56
2018-09-06T23:54:34.208Z,52.19
2018-09-06T23:57:03.742Z,52.81
2018-09-06T23:59:33.236Z,53.70
